Terminal Aerodrome Forecast
Issued by NWS Central Illinois

Home | Current Version | Previous Version | Text Only | Print | Product List | Glossary On
Versions: 1 2 3 4 5 6 7 8 9 10 11 12 13 14 15 16
753
FTUS43 KILX 201206 RRA
TAFPIA
TAF
KPIA 201206Z 2012/2112 VRB04KT P6SM BKN100
     FM201500 17007KT P6SM VCSH BKN050
     FM201900 16009KT P6SM SCT050 BKN120
     FM210700 12005KT P6SM VCTS BKN050CB=

USA.gov is the U.S. government's official web portal to all federal, state and local government web resources and services.